Portada
METAR-TAF:

METAR-TAF

Aeropuertos :

Aeropuerto de Sabadell

Sabadell, España

latitud: 41-31N, longitud: 002-06E, altitud: 250 m

Observación

El informe se hizo hace 27 minutos, a las 18:00 UTC
Viento 6 kt del sureste, variando entre este-sureste y sur
Temperatura 24°C
Humedad 38%
Presión 1020 hPa
Visibilidad 10 km o más
Escasas nubes a una altura de 6000 ft

METAR: LELL 261800Z 14006KT 110V170 9999 FEW060 24/09 Q1020

Hora: 20:27 (18:27 UTC)

Pronóstico

El informe se hizo hace 4 horas y 27 minutos, a las 14:00 UTC
Pronóstico válido del 26 a las 15 UTC al 27 a las 15 UTC
Viento 3 kt con dirección variable
Visibilidad 10 km o más
Nubes dispersas a una altura de 6000 ft
Temporalmente
del 26 a las 15 UTC al 26 a las 17 UTC
Viento 10 kt del sureste

TAF: LELL 261400Z 2615/2715 VRB03KT 9999 SCT060 TX28/2712Z TN13/2706Z TEMPO 2615/2617 13010KT

Observaciones y pronósticos meteorológicos de más de 4000 aeropuertos (mensajes METAR y TAF).

Los puntos amarillos y rojos representan las estaciones disponibles.

Ponga el ratón en el punto deseado para ver el nombre de la estación.

Haga clic para ver las observaciones y los pronósticos meteorológicos.

Para cambiar el mapa : haga clic en los botones verdes con una cruz de color negro para hacer un zoom, en el botón verde con un guión para alejar o en las flechas verdes para mapas adyacentes.


METAR-TAF: